sensor_id;sensor_type;location;lat;lon;timestamp;P1;durP1;ratioP1;P2;durP2;ratioP2
64550;SDS011;50945;44.472;-123.352;2023-04-06T00:01:54;1.67;;;0.55;;
64550;SDS011;50945;44.472;-123.352;2023-04-06T00:04:20;1.98;;;0.57;;
64550;SDS011;50945;44.472;-123.352;2023-04-06T00:06:46;0.70;;;0.63;;
64550;SDS011;50945;44.472;-123.352;2023-04-06T00:09:12;0.28;;;0.28;;
64550;SDS011;50945;44.472;-123.352;2023-04-06T00:11:38;0.82;;;0.70;;
64550;SDS011;50945;44.472;-123.352;2023-04-06T00:14:06;0.38;;;0.38;;
64550;SDS011;50945;44.472;-123.352;2023-04-06T00:16:32;0.57;;;0.57;;
64550;SDS011;50945;44.472;-123.352;2023-04-06T00:18:58;0.65;;;0.60;;
64550;SDS011;50945;44.472;-123.352;2023-04-06T00:21:25;0.45;;;0.30;;
64550;SDS011;50945;44.472;-123.352;2023-04-06T00:23:51;0.50;;;0.50;;
64550;SDS011;50945;44.472;-123.352;2023-04-06T00:26:17;1.05;;;1.00;;
64550;SDS011;50945;44.472;-123.352;2023-04-06T00:28:43;0.70;;;0.70;;
64550;SDS011;50945;44.472;-123.352;2023-04-06T00:31:11;1.00;;;0.73;;
64550;SDS011;50945;44.472;-123.352;2023-04-06T00:33:37;0.40;;;0.40;;
64550;SDS011;50945;44.472;-123.352;2023-04-06T00:36:03;0.68;;;0.60;;
64550;SDS011;50945;44.472;-123.352;2023-04-06T00:38:30;0.60;;;0.60;;
64550;SDS011;50945;44.472;-123.352;2023-04-06T00:40:57;0.73;;;0.73;;
64550;SDS011;50945;44.472;-123.352;2023-04-06T00:43:23;2.88;;;0.90;;
64550;SDS011;50945;44.472;-123.352;2023-04-06T00:45:49;1.02;;;0.80;;
64550;SDS011;50945;44.472;-123.352;2023-04-06T00:48:16;0.75;;;0.50;;
64550;SDS011;50945;44.472;-123.352;2023-04-06T00:50:42;1.48;;;0.70;;
64550;SDS011;50945;44.472;-123.352;2023-04-06T00:53:08;1.05;;;0.70;;
64550;SDS011;50945;44.472;-123.352;2023-04-06T00:55:34;1.45;;;0.73;;
64550;SDS011;50945;44.472;-123.352;2023-04-06T00:58:01;1.08;;;0.63;;
64550;SDS011;50945;44.472;-123.352;2023-04-06T01:00:29;0.50;;;0.50;;
64550;SDS011;50945;44.472;-123.352;2023-04-06T01:02:55;0.77;;;0.77;;
64550;SDS011;50945;44.472;-123.352;2023-04-06T01:05:21;0.77;;;0.60;;
64550;SDS011;50945;44.472;-123.352;2023-04-06T01:07:48;0.68;;;0.68;;
64550;SDS011;50945;44.472;-123.352;2023-04-06T01:10:24;0.60;;;0.60;;
64550;SDS011;50945;44.472;-123.352;2023-04-06T01:12:52;1.88;;;0.90;;
64550;SDS011;50945;44.472;-123.352;2023-04-06T01:15:18;0.70;;;0.70;;
64550;SDS011;50945;44.472;-123.352;2023-04-06T01:17:46;0.80;;;0.77;;
64550;SDS011;50945;44.472;-123.352;2023-04-06T01:20:12;0.65;;;0.60;;
64550;SDS011;50945;44.472;-123.352;2023-04-06T01:22:38;0.43;;;0.43;;
64550;SDS011;50945;44.472;-123.352;2023-04-06T01:25:05;0.52;;;0.52;;
64550;SDS011;50945;44.472;-123.352;2023-04-06T01:27:32;0.85;;;0.57;;
64550;SDS011;50945;44.472;-123.352;2023-04-06T01:30:01;0.98;;;0.82;;
64550;SDS011;50945;44.472;-123.352;2023-04-06T01:32:28;0.85;;;0.40;;
64550;SDS011;50945;44.472;-123.352;2023-04-06T01:34:54;0.80;;;0.80;;
64550;SDS011;50945;44.472;-123.352;2023-04-06T01:37:20;1.58;;;0.60;;
64550;SDS011;50945;44.472;-123.352;2023-04-06T01:39:46;1.17;;;0.47;;
64550;SDS011;50945;44.472;-123.352;2023-04-06T01:42:13;0.70;;;0.70;;
64550;SDS011;50945;44.472;-123.352;2023-04-06T01:44:39;0.50;;;0.50;;
64550;SDS011;50945;44.472;-123.352;2023-04-06T01:47:06;1.83;;;0.88;;
64550;SDS011;50945;44.472;-123.352;2023-04-06T01:49:33;0.93;;;0.63;;
64550;SDS011;50945;44.472;-123.352;2023-04-06T01:51:59;0.50;;;0.50;;
64550;SDS011;50945;44.472;-123.352;2023-04-06T01:54:25;1.35;;;0.98;;
64550;SDS011;50945;44.472;-123.352;2023-04-06T01:56:51;1.02;;;0.70;;
64550;SDS011;50945;44.472;-123.352;2023-04-06T01:59:19;0.65;;;0.65;;
64550;SDS011;50945;44.472;-123.352;2023-04-06T02:01:46;3.70;;;0.60;;
64550;SDS011;50945;44.472;-123.352;2023-04-06T02:04:12;1.55;;;0.70;;
64550;SDS011;50945;44.472;-123.352;2023-04-06T02:06:39;1.95;;;0.65;;
64550;SDS011;50945;44.472;-123.352;2023-04-06T02:09:05;0.60;;;0.60;;
64550;SDS011;50945;44.472;-123.352;2023-04-06T02:11:33;0.60;;;0.60;;
64550;SDS011;50945;44.472;-123.352;2023-04-06T02:13:59;1.52;;;0.50;;
64550;SDS011;50945;44.472;-123.352;2023-04-06T02:16:26;0.70;;;0.65;;
64550;SDS011;50945;44.472;-123.352;2023-04-06T02:18:52;1.60;;;1.05;;
64550;SDS011;50945;44.472;-123.352;2023-04-06T02:21:18;2.28;;;0.65;;
64550;SDS011;50945;44.472;-123.352;2023-04-06T02:23:47;0.70;;;0.70;;
64550;SDS011;50945;44.472;-123.352;2023-04-06T02:26:14;0.70;;;0.68;;
64550;SDS011;50945;44.472;-123.352;2023-04-06T02:28:41;0.77;;;0.77;;
64550;SDS011;50945;44.472;-123.352;2023-04-06T02:31:08;1.83;;;0.93;;
64550;SDS011;50945;44.472;-123.352;2023-04-06T02:33:36;0.47;;;0.47;;
64550;SDS011;50945;44.472;-123.352;2023-04-06T02:36:02;0.98;;;0.90;;
64550;SDS011;50945;44.472;-123.352;2023-04-06T02:40:55;1.85;;;0.82;;
64550;SDS011;50945;44.472;-123.352;2023-04-06T02:43:21;0.88;;;0.88;;
64550;SDS011;50945;44.472;-123.352;2023-04-06T02:45:48;2.47;;;0.50;;
64550;SDS011;50945;44.472;-123.352;2023-04-06T02:48:14;1.58;;;1.10;;
64550;SDS011;50945;44.472;-123.352;2023-04-06T02:50:40;1.30;;;0.70;;
64550;SDS011;50945;44.472;-123.352;2023-04-06T02:53:06;0.75;;;0.75;;
64550;SDS011;50945;44.472;-123.352;2023-04-06T02:55:32;0.60;;;0.60;;
64550;SDS011;50945;44.472;-123.352;2023-04-06T02:58:00;0.57;;;0.47;;
64550;SDS011;50945;44.472;-123.352;2023-04-06T03:00:26;0.65;;;0.65;;
64550;SDS011;50945;44.472;-123.352;2023-04-06T03:02:53;1.25;;;0.90;;
64550;SDS011;50945;44.472;-123.352;2023-04-06T03:05:19;5.30;;;1.00;;
64550;SDS011;50945;44.472;-123.352;2023-04-06T03:07:45;0.63;;;0.63;;
64550;SDS011;50945;44.472;-123.352;2023-04-06T03:10:11;0.70;;;0.70;;
64550;SDS011;50945;44.472;-123.352;2023-04-06T03:12:40;1.15;;;0.90;;
64550;SDS011;50945;44.472;-123.352;2023-04-06T03:15:07;0.73;;;0.73;;
64550;SDS011;50945;44.472;-123.352;2023-04-06T03:19:59;1.00;;;0.70;;
64550;SDS011;50945;44.472;-123.352;2023-04-06T03:22:25;1.10;;;0.85;;
64550;SDS011;50945;44.472;-123.352;2023-04-06T03:24:52;1.67;;;1.00;;
64550;SDS011;50945;44.472;-123.352;2023-04-06T03:27:18;0.70;;;0.70;;
64550;SDS011;50945;44.472;-123.352;2023-04-06T03:29:45;1.83;;;0.77;;
64550;SDS011;50945;44.472;-123.352;2023-04-06T03:32:12;3.15;;;0.80;;
64550;SDS011;50945;44.472;-123.352;2023-04-06T03:34:42;0.90;;;0.90;;
64550;SDS011;50945;44.472;-123.352;2023-04-06T03:37:08;2.15;;;1.00;;
64550;SDS011;50945;44.472;-123.352;2023-04-06T03:39:35;0.82;;;0.80;;
64550;SDS011;50945;44.472;-123.352;2023-04-06T03:42:01;0.68;;;0.68;;
64550;SDS011;50945;44.472;-123.352;2023-04-06T03:44:27;1.40;;;0.80;;
64550;SDS011;50945;44.472;-123.352;2023-04-06T03:46:53;0.88;;;0.80;;
64550;SDS011;50945;44.472;-123.352;2023-04-06T03:49:20;0.70;;;0.70;;
64550;SDS011;50945;44.472;-123.352;2023-04-06T03:51:46;1.08;;;0.90;;
64550;SDS011;50945;44.472;-123.352;2023-04-06T03:54:12;1.33;;;0.98;;
64550;SDS011;50945;44.472;-123.352;2023-04-06T03:56:38;1.60;;;0.80;;
64550;SDS011;50945;44.472;-123.352;2023-04-06T03:59:06;1.90;;;0.75;;
64550;SDS011;50945;44.472;-123.352;2023-04-06T04:01:32;0.68;;;0.68;;
64550;SDS011;50945;44.472;-123.352;2023-04-06T04:03:58;2.15;;;1.08;;
64550;SDS011;50945;44.472;-123.352;2023-04-06T04:06:25;2.05;;;1.00;;
64550;SDS011;50945;44.472;-123.352;2023-04-06T04:08:51;1.50;;;1.05;;
64550;SDS011;50945;44.472;-123.352;2023-04-06T04:11:17;0.70;;;0.70;;
64550;SDS011;50945;44.472;-123.352;2023-04-06T04:13:46;1.25;;;0.80;;
64550;SDS011;50945;44.472;-123.352;2023-04-06T04:16:12;0.85;;;0.73;;
64550;SDS011;50945;44.472;-123.352;2023-04-06T04:18:39;3.25;;;0.90;;
64550;SDS011;50945;44.472;-123.352;2023-04-06T04:21:07;0.80;;;0.80;;
64550;SDS011;50945;44.472;-123.352;2023-04-06T04:23:33;1.00;;;1.00;;
64550;SDS011;50945;44.472;-123.352;2023-04-06T04:26:03;1.02;;;1.02;;
64550;SDS011;50945;44.472;-123.352;2023-04-06T04:28:31;2.05;;;1.13;;
64550;SDS011;50945;44.472;-123.352;2023-04-06T04:30:57;1.38;;;1.30;;
64550;SDS011;50945;44.472;-123.352;2023-04-06T04:33:24;2.42;;;1.45;;
64550;SDS011;50945;44.472;-123.352;2023-04-06T04:35:51;1.13;;;1.00;;
64550;SDS011;50945;44.472;-123.352;2023-04-06T04:38:17;1.30;;;1.20;;
64550;SDS011;50945;44.472;-123.352;2023-04-06T04:40:43;1.73;;;1.60;;
64550;SDS011;50945;44.472;-123.352;2023-04-06T04:43:11;4.18;;;2.05;;
64550;SDS011;50945;44.472;-123.352;2023-04-06T04:45:37;2.08;;;1.77;;
64550;SDS011;50945;44.472;-123.352;2023-04-06T04:48:06;6.50;;;2.25;;
64550;SDS011;50945;44.472;-123.352;2023-04-06T04:53:00;2.75;;;2.22;;
64550;SDS011;50945;44.472;-123.352;2023-04-06T04:55:33;3.08;;;2.00;;
64550;SDS011;50945;44.472;-123.352;2023-04-06T04:58:00;4.22;;;2.33;;
64550;SDS011;50945;44.472;-123.352;2023-04-06T05:00:29;2.47;;;1.88;;
64550;SDS011;50945;44.472;-123.352;2023-04-06T05:02:55;7.15;;;2.00;;
64550;SDS011;50945;44.472;-123.352;2023-04-06T05:05:22;2.97;;;2.10;;
64550;SDS011;50945;44.472;-123.352;2023-04-06T05:07:48;2.10;;;1.80;;
64550;SDS011;50945;44.472;-123.352;2023-04-06T05:10:14;2.15;;;1.60;;
64550;SDS011;50945;44.472;-123.352;2023-04-06T05:12:40;2.92;;;1.60;;
64550;SDS011;50945;44.472;-123.352;2023-04-06T05:15:07;1.80;;;1.42;;
64550;SDS011;50945;44.472;-123.352;2023-04-06T05:17:34;1.50;;;1.40;;
64550;SDS011;50945;44.472;-123.352;2023-04-06T05:20:01;1.60;;;1.50;;
64550;SDS011;50945;44.472;-123.352;2023-04-06T05:22:27;3.00;;;1.45;;
64550;SDS011;50945;44.472;-123.352;2023-04-06T05:24:53;2.30;;;1.48;;
64550;SDS011;50945;44.472;-123.352;2023-04-06T05:27:19;2.20;;;1.48;;
64550;SDS011;50945;44.472;-123.352;2023-04-06T05:29:46;1.75;;;1.60;;
64550;SDS011;50945;44.472;-123.352;2023-04-06T05:32:12;1.60;;;1.20;;
64550;SDS011;50945;44.472;-123.352;2023-04-06T05:34:38;1.92;;;1.77;;
64550;SDS011;50945;44.472;-123.352;2023-04-06T05:37:05;2.28;;;1.40;;
64550;SDS011;50945;44.472;-123.352;2023-04-06T05:39:31;2.58;;;1.88;;
64550;SDS011;50945;44.472;-123.352;2023-04-06T05:41:57;1.90;;;1.58;;
64550;SDS011;50945;44.472;-123.352;2023-04-06T05:44:24;2.00;;;1.75;;
64550;SDS011;50945;44.472;-123.352;2023-04-06T05:46:50;4.30;;;2.03;;
64550;SDS011;50945;44.472;-123.352;2023-04-06T05:49:16;3.30;;;2.13;;
64550;SDS011;50945;44.472;-123.352;2023-04-06T05:51:42;3.33;;;2.00;;
64550;SDS011;50945;44.472;-123.352;2023-04-06T05:54:08;3.38;;;2.30;;
64550;SDS011;50945;44.472;-123.352;2023-04-06T05:56:35;2.47;;;1.90;;
64550;SDS011;50945;44.472;-123.352;2023-04-06T05:59:01;2.85;;;2.03;;
64550;SDS011;50945;44.472;-123.352;2023-04-06T06:01:29;3.72;;;2.20;;
64550;SDS011;50945;44.472;-123.352;2023-04-06T06:03:55;3.95;;;2.20;;
64550;SDS011;50945;44.472;-123.352;2023-04-06T06:06:21;2.38;;;2.17;;
64550;SDS011;50945;44.472;-123.352;2023-04-06T06:08:47;2.78;;;2.00;;
64550;SDS011;50945;44.472;-123.352;2023-04-06T06:11:17;3.40;;;1.90;;
64550;SDS011;50945;44.472;-123.352;2023-04-06T06:13:43;3.30;;;2.00;;
64550;SDS011;50945;44.472;-123.352;2023-04-06T06:16:09;2.95;;;2.00;;
64550;SDS011;50945;44.472;-123.352;2023-04-06T06:18:37;3.92;;;1.95;;
64550;SDS011;50945;44.472;-123.352;2023-04-06T06:21:03;2.58;;;1.90;;
64550;SDS011;50945;44.472;-123.352;2023-04-06T06:23:29;2.55;;;1.88;;
64550;SDS011;50945;44.472;-123.352;2023-04-06T06:25:55;2.67;;;2.00;;
64550;SDS011;50945;44.472;-123.352;2023-04-06T06:28:23;2.45;;;1.45;;
64550;SDS011;50945;44.472;-123.352;2023-04-06T06:30:50;2.63;;;1.65;;
64550;SDS011;50945;44.472;-123.352;2023-04-06T06:33:16;2.20;;;1.88;;
64550;SDS011;50945;44.472;-123.352;2023-04-06T06:35:43;2.80;;;1.95;;
64550;SDS011;50945;44.472;-123.352;2023-04-06T06:38:09;3.35;;;2.00;;
64550;SDS011;50945;44.472;-123.352;2023-04-06T06:40:35;2.03;;;1.70;;
64550;SDS011;50945;44.472;-123.352;2023-04-06T06:43:02;3.60;;;2.38;;
64550;SDS011;50945;44.472;-123.352;2023-04-06T06:45:28;3.50;;;1.85;;
64550;SDS011;50945;44.472;-123.352;2023-04-06T06:47:54;4.00;;;2.05;;
64550;SDS011;50945;44.472;-123.352;2023-04-06T06:50:21;2.55;;;1.88;;
64550;SDS011;50945;44.472;-123.352;2023-04-06T06:52:47;3.28;;;1.98;;
64550;SDS011;50945;44.472;-123.352;2023-04-06T06:55:13;4.75;;;2.25;;
64550;SDS011;50945;44.472;-123.352;2023-04-06T07:00:08;1.70;;;1.60;;
64550;SDS011;50945;44.472;-123.352;2023-04-06T07:02:35;2.13;;;1.95;;
64550;SDS011;50945;44.472;-123.352;2023-04-06T07:05:01;1.90;;;1.80;;
64550;SDS011;50945;44.472;-123.352;2023-04-06T07:09:54;3.70;;;1.80;;
64550;SDS011;50945;44.472;-123.352;2023-04-06T07:12:20;2.30;;;1.60;;
64550;SDS011;50945;44.472;-123.352;2023-04-06T07:14:48;1.92;;;1.58;;
64550;SDS011;50945;44.472;-123.352;2023-04-06T07:17:14;3.50;;;1.40;;
64550;SDS011;50945;44.472;-123.352;2023-04-06T07:19:40;1.35;;;1.25;;
64550;SDS011;50945;44.472;-123.352;2023-04-06T07:22:07;3.15;;;1.85;;
64550;SDS011;50945;44.472;-123.352;2023-04-06T07:24:33;3.00;;;1.80;;
64550;SDS011;50945;44.472;-123.352;2023-04-06T07:27:00;1.67;;;1.42;;
64550;SDS011;50945;44.472;-123.352;2023-04-06T07:29:27;2.35;;;1.60;;
64550;SDS011;50945;44.472;-123.352;2023-04-06T07:31:53;1.50;;;1.40;;
64550;SDS011;50945;44.472;-123.352;2023-04-06T07:36:46;1.90;;;1.35;;
64550;SDS011;50945;44.472;-123.352;2023-04-06T07:39:12;2.25;;;1.20;;
64550;SDS011;50945;44.472;-123.352;2023-04-06T07:41:39;2.70;;;1.48;;
64550;SDS011;50945;44.472;-123.352;2023-04-06T07:44:05;2.92;;;1.25;;
64550;SDS011;50945;44.472;-123.352;2023-04-06T07:46:31;1.70;;;1.60;;
64550;SDS011;50945;44.472;-123.352;2023-04-06T07:48:58;1.55;;;1.20;;
64550;SDS011;50945;44.472;-123.352;2023-04-06T07:51:26;4.47;;;1.48;;
64550;SDS011;50945;44.472;-123.352;2023-04-06T07:53:52;1.80;;;1.50;;
64550;SDS011;50945;44.472;-123.352;2023-04-06T07:56:19;1.33;;;1.20;;
64550;SDS011;50945;44.472;-123.352;2023-04-06T08:01:12;1.80;;;0.80;;
64550;SDS011;50945;44.472;-123.352;2023-04-06T08:03:38;1.27;;;1.17;;
64550;SDS011;50945;44.472;-123.352;2023-04-06T08:06:05;1.45;;;1.35;;
64550;SDS011;50945;44.472;-123.352;2023-04-06T08:08:31;1.20;;;1.10;;
64550;SDS011;50945;44.472;-123.352;2023-04-06T08:10:57;1.08;;;1.08;;
64550;SDS011;50945;44.472;-123.352;2023-04-06T08:13:23;1.08;;;1.08;;
64550;SDS011;50945;44.472;-123.352;2023-04-06T08:15:50;2.65;;;1.27;;
64550;SDS011;50945;44.472;-123.352;2023-04-06T08:18:16;1.48;;;1.00;;
64550;SDS011;50945;44.472;-123.352;2023-04-06T08:20:42;0.93;;;0.93;;
64550;SDS011;50945;44.472;-123.352;2023-04-06T08:23:08;1.10;;;1.00;;
64550;SDS011;50945;44.472;-123.352;2023-04-06T08:25:35;1.67;;;1.38;;
64550;SDS011;50945;44.472;-123.352;2023-04-06T08:30:28;1.17;;;1.08;;
64550;SDS011;50945;44.472;-123.352;2023-04-06T08:32:55;1.27;;;1.10;;
64550;SDS011;50945;44.472;-123.352;2023-04-06T08:35:21;2.70;;;0.98;;
64550;SDS011;50945;44.472;-123.352;2023-04-06T08:37:47;1.30;;;1.20;;
64550;SDS011;50945;44.472;-123.352;2023-04-06T08:40:14;2.13;;;0.90;;
64550;SDS011;50945;44.472;-123.352;2023-04-06T08:42:40;1.05;;;0.80;;
64550;SDS011;50945;44.472;-123.352;2023-04-06T08:45:12;1.92;;;1.25;;
64550;SDS011;50945;44.472;-123.352;2023-04-06T08:47:40;1.30;;;1.00;;
64550;SDS011;50945;44.472;-123.352;2023-04-06T08:52:34;0.90;;;0.90;;
64550;SDS011;50945;44.472;-123.352;2023-04-06T08:57:27;1.23;;;1.08;;
64550;SDS011;50945;44.472;-123.352;2023-04-06T08:59:54;1.88;;;1.20;;
64550;SDS011;50945;44.472;-123.352;2023-04-06T09:02:21;1.55;;;1.10;;
64550;SDS011;50945;44.472;-123.352;2023-04-06T09:04:48;2.80;;;1.23;;
64550;SDS011;50945;44.472;-123.352;2023-04-06T09:07:17;1.75;;;1.30;;
64550;SDS011;50945;44.472;-123.352;2023-04-06T09:09:43;1.77;;;1.00;;
64550;SDS011;50945;44.472;-123.352;2023-04-06T09:12:26;1.00;;;0.88;;
64550;SDS011;50945;44.472;-123.352;2023-04-06T09:14:53;1.38;;;1.08;;
64550;SDS011;50945;44.472;-123.352;2023-04-06T09:17:21;1.50;;;1.40;;
64550;SDS011;50945;44.472;-123.352;2023-04-06T09:19:49;1.20;;;1.10;;
64550;SDS011;50945;44.472;-123.352;2023-04-06T09:22:15;1.08;;;0.88;;
64550;SDS011;50945;44.472;-123.352;2023-04-06T09:27:09;0.80;;;0.80;;
64550;SDS011;50945;44.472;-123.352;2023-04-06T09:29:36;0.93;;;0.93;;
64550;SDS011;50945;44.472;-123.352;2023-04-06T09:32:03;1.73;;;1.10;;
64550;SDS011;50945;44.472;-123.352;2023-04-06T09:34:30;1.23;;;1.13;;
64550;SDS011;50945;44.472;-123.352;2023-04-06T09:36:56;0.77;;;0.77;;
64550;SDS011;50945;44.472;-123.352;2023-04-06T09:39:23;2.60;;;1.17;;
64550;SDS011;50945;44.472;-123.352;2023-04-06T09:41:51;0.93;;;0.80;;
64550;SDS011;50945;44.472;-123.352;2023-04-06T09:44:19;1.85;;;1.10;;
64550;SDS011;50945;44.472;-123.352;2023-04-06T09:46:46;0.80;;;0.80;;
64550;SDS011;50945;44.472;-123.352;2023-04-06T09:51:39;1.83;;;1.00;;
64550;SDS011;50945;44.472;-123.352;2023-04-06T09:54:11;1.30;;;1.00;;
64550;SDS011;50945;44.472;-123.352;2023-04-06T09:57:04;0.90;;;0.90;;
64550;SDS011;50945;44.472;-123.352;2023-04-06T10:02:05;1.40;;;1.10;;
64550;SDS011;50945;44.472;-123.352;2023-04-06T10:04:45;1.70;;;1.23;;
64550;SDS011;50945;44.472;-123.352;2023-04-06T10:07:34;2.17;;;0.68;;
64550;SDS011;50945;44.472;-123.352;2023-04-06T10:10:02;1.88;;;1.25;;
64550;SDS011;50945;44.472;-123.352;2023-04-06T10:12:28;0.85;;;0.85;;
64550;SDS011;50945;44.472;-123.352;2023-04-06T10:14:55;2.97;;;1.13;;
64550;SDS011;50945;44.472;-123.352;2023-04-06T10:17:22;2.17;;;0.88;;
64550;SDS011;50945;44.472;-123.352;2023-04-06T10:20:10;1.23;;;1.13;;
64550;SDS011;50945;44.472;-123.352;2023-04-06T10:23:05;1.90;;;1.13;;
64550;SDS011;50945;44.472;-123.352;2023-04-06T10:25:51;1.65;;;0.88;;
64550;SDS011;50945;44.472;-123.352;2023-04-06T10:28:19;1.30;;;1.20;;
64550;SDS011;50945;44.472;-123.352;2023-04-06T10:30:45;1.48;;;0.90;;
64550;SDS011;50945;44.472;-123.352;2023-04-06T10:33:15;1.38;;;1.27;;
64550;SDS011;50945;44.472;-123.352;2023-04-06T10:35:42;2.33;;;1.33;;
64550;SDS011;50945;44.472;-123.352;2023-04-06T10:38:09;1.63;;;1.05;;
64550;SDS011;50945;44.472;-123.352;2023-04-06T10:40:37;2.03;;;1.13;;
64550;SDS011;50945;44.472;-123.352;2023-04-06T10:43:11;1.40;;;1.25;;
64550;SDS011;50945;44.472;-123.352;2023-04-06T10:45:39;1.42;;;1.13;;
64550;SDS011;50945;44.472;-123.352;2023-04-06T10:48:15;1.33;;;1.23;;
64550;SDS011;50945;44.472;-123.352;2023-04-06T10:50:50;1.85;;;1.20;;
64550;SDS011;50945;44.472;-123.352;2023-04-06T10:53:21;3.92;;;1.27;;
64550;SDS011;50945;44.472;-123.352;2023-04-06T10:55:49;0.88;;;0.80;;
64550;SDS011;50945;44.472;-123.352;2023-04-06T10:58:20;2.00;;;1.52;;
64550;SDS011;50945;44.472;-123.352;2023-04-06T11:00:50;1.42;;;1.10;;
64550;SDS011;50945;44.472;-123.352;2023-04-06T11:03:17;2.45;;;1.00;;
64550;SDS011;50945;44.472;-123.352;2023-04-06T11:05:44;1.13;;;0.80;;
64550;SDS011;50945;44.472;-123.352;2023-04-06T11:08:32;1.13;;;0.90;;
64550;SDS011;50945;44.472;-123.352;2023-04-06T11:11:05;0.90;;;0.90;;
64550;SDS011;50945;44.472;-123.352;2023-04-06T11:13:41;3.35;;;1.20;;
64550;SDS011;50945;44.472;-123.352;2023-04-06T11:16:16;0.98;;;0.98;;
64550;SDS011;50945;44.472;-123.352;2023-04-06T11:21:34;1.55;;;1.20;;
64550;SDS011;50945;44.472;-123.352;2023-04-06T11:24:08;1.08;;;1.05;;
64550;SDS011;50945;44.472;-123.352;2023-04-06T11:26:37;1.85;;;1.35;;
64550;SDS011;50945;44.472;-123.352;2023-04-06T11:29:15;0.88;;;0.88;;
64550;SDS011;50945;44.472;-123.352;2023-04-06T11:31:44;1.45;;;1.05;;
64550;SDS011;50945;44.472;-123.352;2023-04-06T11:34:22;1.27;;;1.17;;
64550;SDS011;50945;44.472;-123.352;2023-04-06T11:36:49;1.20;;;1.10;;
64550;SDS011;50945;44.472;-123.352;2023-04-06T11:39:23;1.30;;;1.15;;
64550;SDS011;50945;44.472;-123.352;2023-04-06T11:45:14;1.38;;;1.13;;
64550;SDS011;50945;44.472;-123.352;2023-04-06T11:47:41;1.23;;;0.90;;
64550;SDS011;50945;44.472;-123.352;2023-04-06T11:50:11;2.30;;;1.20;;
64550;SDS011;50945;44.472;-123.352;2023-04-06T11:52:39;1.77;;;0.95;;
64550;SDS011;50945;44.472;-123.352;2023-04-06T11:55:13;1.23;;;0.57;;
64550;SDS011;50945;44.472;-123.352;2023-04-06T11:57:41;0.88;;;0.88;;
64550;SDS011;50945;44.472;-123.352;2023-04-06T12:00:08;2.55;;;1.20;;
64550;SDS011;50945;44.472;-123.352;2023-04-06T12:02:38;0.90;;;0.90;;
64550;SDS011;50945;44.472;-123.352;2023-04-06T12:05:05;1.95;;;0.95;;
64550;SDS011;50945;44.472;-123.352;2023-04-06T12:07:33;0.98;;;0.98;;
64550;SDS011;50945;44.472;-123.352;2023-04-06T12:10:00;0.80;;;0.80;;
64550;SDS011;50945;44.472;-123.352;2023-04-06T12:12:27;1.17;;;1.10;;
64550;SDS011;50945;44.472;-123.352;2023-04-06T12:14:54;2.50;;;1.17;;
64550;SDS011;50945;44.472;-123.352;2023-04-06T12:17:21;3.10;;;1.27;;
64550;SDS011;50945;44.472;-123.352;2023-04-06T12:19:48;1.42;;;1.15;;
64550;SDS011;50945;44.472;-123.352;2023-04-06T12:22:14;0.65;;;0.65;;
64550;SDS011;50945;44.472;-123.352;2023-04-06T12:24:41;2.20;;;1.13;;
64550;SDS011;50945;44.472;-123.352;2023-04-06T12:27:07;0.88;;;0.85;;
64550;SDS011;50945;44.472;-123.352;2023-04-06T12:29:34;1.38;;;0.90;;
64550;SDS011;50945;44.472;-123.352;2023-04-06T12:32:00;1.95;;;1.00;;
64550;SDS011;50945;44.472;-123.352;2023-04-06T12:34:26;1.10;;;0.98;;
64550;SDS011;50945;44.472;-123.352;2023-04-06T12:36:52;1.17;;;0.82;;
64550;SDS011;50945;44.472;-123.352;2023-04-06T12:39:19;0.77;;;0.77;;
64550;SDS011;50945;44.472;-123.352;2023-04-06T12:41:46;1.05;;;0.90;;
64550;SDS011;50945;44.472;-123.352;2023-04-06T12:44:12;1.48;;;0.98;;
64550;SDS011;50945;44.472;-123.352;2023-04-06T12:46:39;1.23;;;0.82;;
64550;SDS011;50945;44.472;-123.352;2023-04-06T12:49:05;0.80;;;0.80;;
64550;SDS011;50945;44.472;-123.352;2023-04-06T12:51:32;1.00;;;0.93;;
64550;SDS011;50945;44.472;-123.352;2023-04-06T12:53:58;1.23;;;0.68;;
64550;SDS011;50945;44.472;-123.352;2023-04-06T12:56:24;1.80;;;0.90;;
64550;SDS011;50945;44.472;-123.352;2023-04-06T12:58:51;1.13;;;0.93;;
64550;SDS011;50945;44.472;-123.352;2023-04-06T13:01:17;0.65;;;0.65;;
64550;SDS011;50945;44.472;-123.352;2023-04-06T13:03:44;0.85;;;0.77;;
64550;SDS011;50945;44.472;-123.352;2023-04-06T13:06:10;0.77;;;0.77;;
64550;SDS011;50945;44.472;-123.352;2023-04-06T13:08:37;1.40;;;1.08;;
64550;SDS011;50945;44.472;-123.352;2023-04-06T13:11:04;1.50;;;1.20;;
64550;SDS011;50945;44.472;-123.352;2023-04-06T13:13:33;1.67;;;0.88;;
64550;SDS011;50945;44.472;-123.352;2023-04-06T13:16:03;0.70;;;0.70;;
64550;SDS011;50945;44.472;-123.352;2023-04-06T13:18:31;1.33;;;0.75;;
64550;SDS011;50945;44.472;-123.352;2023-04-06T13:20:59;1.75;;;1.08;;
64550;SDS011;50945;44.472;-123.352;2023-04-06T13:23:25;1.75;;;1.20;;
64550;SDS011;50945;44.472;-123.352;2023-04-06T13:26:04;0.68;;;0.68;;
64550;SDS011;50945;44.472;-123.352;2023-04-06T13:33:25;1.60;;;0.98;;
64550;SDS011;50945;44.472;-123.352;2023-04-06T13:35:52;0.70;;;0.70;;
64550;SDS011;50945;44.472;-123.352;2023-04-06T13:38:18;0.82;;;0.82;;
64550;SDS011;50945;44.472;-123.352;2023-04-06T13:40:44;0.70;;;0.70;;
64550;SDS011;50945;44.472;-123.352;2023-04-06T13:43:10;0.93;;;0.93;;
64550;SDS011;50945;44.472;-123.352;2023-04-06T13:45:37;3.20;;;1.05;;
64550;SDS011;50945;44.472;-123.352;2023-04-06T13:48:04;0.80;;;0.80;;
64550;SDS011;50945;44.472;-123.352;2023-04-06T13:50:32;1.15;;;1.13;;
64550;SDS011;50945;44.472;-123.352;2023-04-06T13:52:59;1.98;;;0.95;;
64550;SDS011;50945;44.472;-123.352;2023-04-06T13:55:25;1.00;;;1.00;;
64550;SDS011;50945;44.472;-123.352;2023-04-06T13:57:51;2.30;;;0.98;;
64550;SDS011;50945;44.472;-123.352;2023-04-06T14:00:18;1.02;;;1.02;;
64550;SDS011;50945;44.472;-123.352;2023-04-06T14:02:44;1.00;;;1.00;;
64550;SDS011;50945;44.472;-123.352;2023-04-06T14:05:10;1.25;;;1.10;;
64550;SDS011;50945;44.472;-123.352;2023-04-06T14:07:37;1.48;;;1.05;;
64550;SDS011;50945;44.472;-123.352;2023-04-06T14:10:03;1.15;;;1.00;;
64550;SDS011;50945;44.472;-123.352;2023-04-06T14:12:30;0.90;;;0.77;;
64550;SDS011;50945;44.472;-123.352;2023-04-06T14:14:56;0.70;;;0.70;;
64550;SDS011;50945;44.472;-123.352;2023-04-06T14:17:23;1.00;;;0.90;;
64550;SDS011;50945;44.472;-123.352;2023-04-06T14:19:49;1.20;;;1.10;;
64550;SDS011;50945;44.472;-123.352;2023-04-06T14:22:16;1.23;;;1.10;;
64550;SDS011;50945;44.472;-123.352;2023-04-06T14:24:43;0.77;;;0.77;;
64550;SDS011;50945;44.472;-123.352;2023-04-06T14:27:10;0.98;;;0.98;;
64550;SDS011;50945;44.472;-123.352;2023-04-06T14:29:36;0.82;;;0.80;;
64550;SDS011;50945;44.472;-123.352;2023-04-06T14:32:02;2.25;;;1.20;;
64550;SDS011;50945;44.472;-123.352;2023-04-06T14:34:28;1.15;;;0.75;;
64550;SDS011;50945;44.472;-123.352;2023-04-06T14:36:55;1.13;;;1.02;;
64550;SDS011;50945;44.472;-123.352;2023-04-06T14:39:21;1.48;;;1.15;;
64550;SDS011;50945;44.472;-123.352;2023-04-06T14:41:47;0.85;;;0.85;;
64550;SDS011;50945;44.472;-123.352;2023-04-06T14:44:14;0.70;;;0.70;;
64550;SDS011;50945;44.472;-123.352;2023-04-06T14:46:41;0.85;;;0.85;;
64550;SDS011;50945;44.472;-123.352;2023-04-06T14:49:08;2.15;;;0.70;;
64550;SDS011;50945;44.472;-123.352;2023-04-06T14:51:35;1.98;;;0.90;;
64550;SDS011;50945;44.472;-123.352;2023-04-06T14:54:01;1.85;;;0.95;;